createdAt,value
2022-10-07T00:00:33.214Z,97.88
2022-10-07T00:01:33.278Z,98.03
2022-10-07T00:02:34.227Z,97.93
2022-10-07T00:03:33.189Z,98.13
2022-10-07T00:04:33.165Z,98.24
2022-10-07T00:05:33.185Z,98.13
2022-10-07T00:06:33.158Z,97.93
2022-10-07T00:07:33.153Z,98.24
2022-10-07T00:08:33.138Z,98.18
2022-10-07T00:09:33.125Z,98.28
2022-10-07T00:10:33.720Z,98.18
2022-10-07T00:11:33.114Z,98.18
2022-10-07T00:12:33.106Z,98.13
2022-10-07T00:13:34.790Z,98.28
2022-10-07T00:14:33.086Z,97.77
2022-10-07T00:15:34.827Z,98.18
2022-10-07T00:16:33.166Z,98.28
2022-10-07T00:17:33.062Z,97.97
2022-10-07T00:18:34.719Z,97.97
2022-10-07T00:19:33.045Z,98.18
2022-10-07T00:20:33.038Z,97.97
2022-10-07T00:21:33.055Z,97.97
2022-10-07T00:22:33.020Z,98.24
2022-10-07T00:23:33.015Z,98.28
2022-10-07T00:24:33.004Z,98.18
2022-10-07T00:25:33.009Z,98.08
2022-10-07T00:26:34.835Z,98.49
2022-10-07T00:27:32.985Z,98.24
2022-10-07T00:28:33.065Z,97.97
2022-10-07T00:30:33.506Z,97.77
2022-10-07T00:31:33.434Z,97.77
2022-10-07T00:32:33.427Z,97.97
2022-10-07T00:33:34.507Z,98.34
2022-10-07T00:34:34.505Z,98.13
2022-10-07T00:35:35.374Z,97.66
2022-10-07T00:36:34.484Z,98.18
2022-10-07T00:37:35.379Z,98.13
2022-10-07T00:38:35.376Z,99.02
2022-10-07T00:39:34.468Z,98.75
2022-10-07T00:40:34.457Z,97.72
2022-10-07T00:41:34.451Z,97.67
2022-10-07T00:42:34.445Z,97.67
2022-10-07T00:43:34.446Z,97.47
2022-10-07T00:44:34.439Z,98.15
2022-10-07T00:45:34.463Z,98.05
2022-10-07T00:46:34.412Z,99.18
2022-10-07T00:47:34.409Z,99.18
2022-10-07T00:48:35.299Z,99.60
2022-10-07T00:49:34.404Z,99.86
2022-10-07T00:50:34.385Z,99.65
2022-10-07T00:51:34.376Z,99.55
2022-10-07T00:52:34.371Z,99.76
2022-10-07T00:53:34.361Z,99.24
2022-10-07T00:54:34.360Z,99.24
2022-10-07T00:55:34.348Z,98.88
2022-10-07T00:56:34.345Z,99.51
2022-10-07T00:57:34.331Z,99.55
2022-10-07T00:58:34.323Z,98.99
2022-10-07T00:59:35.876Z,98.41
2022-10-07T01:00:34.304Z,97.17
2022-10-07T01:01:34.356Z,96.97
2022-10-07T01:02:34.384Z,96.97
2022-10-07T01:03:34.283Z,97.07
2022-10-07T01:04:34.275Z,95.10
2022-10-07T01:05:34.273Z,95.52
2022-10-07T01:06:34.269Z,95.04
2022-10-07T01:07:34.262Z,95.04
2022-10-07T01:08:34.251Z,94.94
2022-10-07T01:09:34.245Z,95.87
2022-10-07T01:10:34.805Z,95.87
2022-10-07T01:11:34.219Z,96.12
2022-10-07T01:12:34.213Z,96.12
2022-10-07T01:13:34.807Z,97.26
2022-10-07T01:14:34.197Z,96.95
2022-10-07T01:15:34.201Z,97.16
2022-10-07T01:16:34.218Z,97.26
2022-10-07T01:17:35.882Z,97.57
2022-10-07T01:18:34.166Z,97.78
2022-10-07T01:19:34.157Z,97.88
2022-10-07T01:20:34.151Z,98.09
2022-10-07T01:21:34.147Z,98.09
2022-10-07T01:22:34.131Z,97.74
2022-10-07T01:23:34.123Z,97.63
2022-10-07T01:24:34.116Z,97.32
2022-10-07T01:25:34.817Z,96.75
2022-10-07T01:26:34.113Z,97.22
2022-10-07T01:27:34.096Z,97.53
2022-10-07T01:28:34.154Z,97.49
2022-10-07T01:29:34.079Z,97.53
2022-10-07T01:30:34.111Z,97.38
2022-10-07T01:31:34.813Z,96.86
2022-10-07T01:32:34.067Z,96.66
2022-10-07T01:33:34.052Z,97.59
2022-10-07T01:34:34.035Z,96.86
2022-10-07T01:35:34.030Z,96.45
2022-10-07T01:36:34.025Z,95.94
2022-10-07T01:37:34.020Z,97.07
2022-10-07T01:38:34.024Z,97.13
2022-10-07T01:39:33.998Z,97.17
2022-10-07T01:40:33.994Z,97.59
2022-10-07T01:41:34.027Z,97.59
2022-10-07T01:42:33.982Z,97.44
2022-10-07T01:43:33.969Z,98.00
2022-10-07T01:44:33.967Z,98.10
2022-10-07T01:45:33.955Z,97.79
2022-10-07T01:46:33.987Z,97.96
2022-10-07T01:47:33.946Z,98.00
2022-10-07T01:48:33.929Z,98.06
2022-10-07T01:49:33.922Z,98.00
2022-10-07T01:50:33.914Z,98.31
2022-10-07T01:51:33.907Z,98.21
2022-10-07T01:52:33.901Z,98.68
2022-10-07T01:53:33.889Z,98.52
2022-10-07T01:54:33.869Z,98.52
2022-10-07T01:55:34.873Z,98.68
2022-10-07T01:56:33.863Z,98.00
2022-10-07T01:57:33.868Z,96.86
2022-10-07T01:58:33.846Z,96.97
2022-10-07T01:59:33.845Z,96.97
2022-10-07T02:00:33.836Z,95.31
2022-10-07T02:01:33.861Z,95.21
2022-10-07T02:02:33.812Z,94.63
2022-10-07T02:03:33.847Z,95.15
2022-10-07T02:04:33.795Z,96.02
2022-10-07T02:05:33.794Z,96.33
2022-10-07T02:06:33.781Z,96.23
2022-10-07T02:07:33.768Z,97.06
2022-10-07T02:08:33.774Z,97.36
2022-10-07T02:09:33.754Z,97.36
2022-10-07T02:10:33.750Z,97.11
2022-10-07T02:11:33.744Z,97.32
2022-10-07T02:12:33.726Z,97.26
2022-10-07T02:13:33.718Z,97.11
2022-10-07T02:14:33.711Z,97.11
2022-10-07T02:15:33.721Z,97.74
2022-10-07T02:16:33.698Z,97.84
2022-10-07T02:17:33.684Z,96.76
2022-10-07T02:18:33.677Z,97.22
2022-10-07T02:19:33.667Z,96.91
2022-10-07T02:20:33.661Z,97.38
2022-10-07T02:21:33.662Z,97.79
2022-10-07T02:22:33.648Z,97.28
2022-10-07T02:23:33.641Z,96.86
2022-10-07T02:24:33.633Z,96.66
2022-10-07T02:25:33.625Z,96.86
2022-10-07T02:26:33.630Z,97.22
2022-10-07T02:27:34.322Z,97.38
2022-10-07T02:28:33.702Z,97.42
2022-10-07T02:29:33.592Z,97.28
2022-10-07T02:30:33.588Z,97.07
2022-10-07T02:31:33.718Z,97.28
2022-10-07T02:32:33.567Z,97.38
2022-10-07T02:33:33.561Z,97.59
2022-10-07T02:34:33.553Z,97.32
2022-10-07T02:35:33.547Z,96.23
2022-10-07T02:36:33.542Z,95.09
2022-10-07T02:37:33.542Z,95.19
2022-10-07T02:38:33.529Z,95.09
2022-10-07T02:39:33.513Z,96.17
2022-10-07T02:40:33.507Z,97.10
2022-10-07T02:41:33.504Z,96.58
2022-10-07T02:42:33.501Z,97.00
2022-10-07T02:43:33.483Z,97.31
2022-10-07T02:44:33.489Z,97.31
2022-10-07T02:45:33.482Z,97.10
2022-10-07T02:46:33.490Z,97.41
2022-10-07T02:47:33.463Z,97.52
2022-10-07T02:48:33.428Z,97.41
2022-10-07T02:49:34.440Z,97.83
2022-10-07T02:50:33.425Z,97.93
2022-10-07T02:51:33.420Z,98.13
2022-10-07T02:52:33.420Z,98.65
2022-10-07T02:53:33.404Z,98.86
2022-10-07T02:54:33.406Z,98.50
2022-10-07T02:55:33.898Z,98.24
2022-10-07T02:56:33.378Z,98.44
2022-10-07T02:57:34.329Z,98.44
2022-10-07T02:58:33.366Z,98.40
2022-10-07T02:59:33.366Z,98.40
2022-10-07T03:00:33.351Z,98.09
2022-10-07T03:01:33.443Z,97.99
2022-10-07T03:02:33.339Z,98.09
2022-10-07T03:03:33.411Z,98.50
2022-10-07T03:04:33.323Z,98.30
2022-10-07T03:05:33.306Z,98.71
2022-10-07T03:06:33.302Z,98.77
2022-10-07T03:07:33.294Z,98.56
2022-10-07T03:08:33.295Z,98.46
2022-10-07T03:09:33.281Z,98.25
2022-10-07T03:10:33.278Z,98.25
2022-10-07T03:11:33.260Z,97.84
2022-10-07T03:12:33.260Z,97.74
2022-10-07T03:13:33.263Z,97.42
2022-10-07T03:14:33.247Z,97.63
2022-10-07T03:15:33.305Z,97.57
2022-10-07T03:16:33.899Z,97.84
2022-10-07T03:17:33.220Z,97.84
2022-10-07T03:18:33.211Z,97.57
2022-10-07T03:19:33.207Z,97.88
2022-10-07T03:20:33.199Z,98.09
2022-10-07T03:21:33.181Z,98.61
2022-10-07T03:22:33.178Z,98.30
2022-10-07T03:23:33.171Z,98.40
2022-10-07T03:24:33.168Z,99.18
2022-10-07T03:25:33.151Z,99.18
2022-10-07T03:26:33.140Z,99.08
2022-10-07T03:27:33.136Z,98.25
2022-10-07T03:28:33.202Z,98.05
2022-10-07T03:29:33.124Z,98.15
2022-10-07T03:30:33.106Z,97.63
2022-10-07T03:31:33.128Z,97.42
2022-10-07T03:32:33.096Z,97.53
2022-10-07T03:33:33.093Z,96.91
2022-10-07T03:34:33.086Z,96.91
2022-10-07T03:35:33.068Z,96.91
2022-10-07T03:36:33.063Z,96.80
2022-10-07T03:37:33.059Z,96.85
2022-10-07T03:38:33.058Z,97.22
2022-10-07T03:39:33.049Z,97.01
2022-10-07T03:40:33.038Z,97.06
2022-10-07T03:41:33.022Z,96.44
2022-10-07T03:42:35.847Z,96.08
2022-10-07T03:43:33.010Z,95.98
2022-10-07T03:44:33.002Z,95.87
2022-10-07T03:45:35.920Z,95.87
2022-10-07T03:46:34.014Z,95.87
2022-10-07T03:47:32.968Z,95.92
2022-10-07T03:48:32.966Z,95.92
2022-10-07T03:49:32.966Z,96.23
2022-10-07T03:50:32.945Z,96.12
2022-10-07T03:51:32.939Z,95.92
2022-10-07T03:52:32.939Z,96.37
2022-10-07T03:53:32.920Z,97.20
2022-10-07T03:54:32.912Z,97.20
2022-10-07T03:55:32.905Z,97.31
2022-10-07T03:56:33.412Z,97.52
2022-10-07T03:57:32.900Z,97.62
2022-10-07T03:58:32.886Z,97.93
2022-10-07T03:59:32.878Z,97.72
2022-10-07T04:00:32.874Z,97.93
2022-10-07T04:01:32.915Z,97.31
2022-10-07T04:02:32.897Z,97.06
2022-10-07T04:03:33.417Z,97.26
2022-10-07T04:04:32.837Z,96.75
2022-10-07T04:05:32.840Z,97.16
2022-10-07T04:06:32.829Z,97.52
2022-10-07T04:07:32.816Z,97.16
2022-10-07T04:08:32.985Z,97.36
2022-10-07T04:09:32.798Z,97.31
2022-10-07T04:10:32.796Z,97.36
2022-10-07T04:11:32.793Z,97.36
2022-10-07T04:12:32.776Z,97.06
2022-10-07T04:13:32.767Z,97.16
2022-10-07T04:14:32.767Z,97.26
2022-10-07T04:15:32.757Z,97.36
2022-10-07T04:16:37.169Z,97.26
2022-10-07T04:17:34.747Z,97.06
2022-10-07T04:18:32.758Z,96.85
2022-10-07T04:19:32.721Z,97.31
2022-10-07T04:20:32.725Z,97.36
2022-10-07T04:21:32.739Z,97.72
2022-10-07T04:22:32.699Z,97.47
2022-10-07T04:23:32.690Z,97.67
2022-10-07T04:24:32.692Z,97.78
2022-10-07T04:25:32.685Z,97.16
2022-10-07T04:26:32.669Z,97.57
2022-10-07T04:27:50.721Z,97.83
2022-10-07T04:28:34.824Z,97.88
2022-10-07T04:29:39.129Z,97.62
2022-10-07T04:30:34.657Z,97.62
2022-10-07T04:31:33.668Z,97.67
2022-10-07T04:32:32.634Z,97.78
2022-10-07T04:33:32.618Z,97.47
2022-10-07T04:34:32.615Z,97.88
2022-10-07T04:35:32.611Z,97.67
2022-10-07T04:36:32.600Z,97.10
2022-10-07T04:37:32.591Z,97.88
2022-10-07T04:38:32.587Z,97.78
2022-10-07T04:39:56.197Z,98.09
2022-10-07T04:40:35.347Z,97.78
2022-10-07T04:41:32.566Z,97.83
2022-10-07T04:42:32.552Z,97.78
2022-10-07T04:43:32.542Z,97.67
2022-10-07T04:44:32.553Z,97.36
2022-10-07T04:45:32.532Z,97.78
2022-10-07T04:46:32.563Z,97.06
2022-10-07T04:47:32.522Z,96.85
2022-10-07T04:48:32.509Z,96.95
2022-10-07T04:49:32.500Z,96.89
2022-10-07T04:50:33.346Z,97.00
2022-10-07T04:51:32.485Z,97.31
2022-10-07T04:52:32.476Z,97.10
2022-10-07T04:53:33.350Z,97.87
2022-10-07T04:54:32.527Z,97.77
2022-10-07T04:55:32.460Z,98.18
2022-10-07T04:56:32.967Z,97.93
2022-10-07T04:57:32.435Z,98.03
2022-10-07T04:58:32.430Z,97.52
2022-10-07T04:59:33.724Z,97.83
2022-10-07T05:00:32.528Z,97.00
2022-10-07T05:01:32.411Z,96.89
2022-10-07T05:02:32.423Z,97.10
2022-10-07T05:03:32.392Z,96.89
2022-10-07T05:04:32.379Z,96.69
2022-10-07T05:05:32.366Z,97.20
2022-10-07T05:06:32.367Z,97.41
2022-10-07T05:07:32.355Z,96.62
2022-10-07T05:08:32.350Z,96.31
2022-10-07T05:09:32.387Z,96.83
2022-10-07T05:10:32.923Z,97.35
2022-10-07T05:11:32.343Z,97.25
2022-10-07T05:12:32.326Z,97.25
2022-10-07T05:13:32.306Z,97.25
2022-10-07T05:14:32.304Z,96.11
2022-10-07T05:15:32.297Z,95.80
2022-10-07T05:16:32.358Z,96.11
2022-10-07T05:17:32.304Z,96.01
2022-10-07T05:18:32.279Z,95.59
2022-10-07T05:19:32.261Z,96.01
2022-10-07T05:20:32.272Z,96.01
2022-10-07T05:21:32.257Z,96.11
2022-10-07T05:22:32.246Z,95.64
2022-10-07T05:23:32.243Z,95.84
2022-10-07T05:24:32.885Z,96.01
2022-10-07T05:25:32.217Z,96.47
2022-10-07T05:26:32.222Z,96.67
2022-10-07T05:27:32.235Z,96.73
2022-10-07T05:28:32.251Z,96.73
2022-10-07T05:29:32.189Z,97.45
2022-10-07T05:30:32.180Z,97.45
2022-10-07T05:31:32.243Z,97.45
2022-10-07T05:32:32.160Z,96.58
2022-10-07T05:33:32.160Z,96.11
2022-10-07T05:34:32.177Z,95.75
2022-10-07T05:35:32.132Z,95.96
2022-10-07T05:36:32.140Z,96.01
2022-10-07T05:37:32.132Z,96.11
2022-10-07T05:38:32.115Z,96.31
2022-10-07T05:39:32.123Z,95.80
2022-10-07T05:40:32.095Z,96.21
2022-10-07T05:41:32.088Z,95.80
2022-10-07T05:42:32.079Z,96.52
2022-10-07T05:43:32.074Z,96.94
2022-10-07T05:44:32.075Z,97.25
2022-10-07T05:45:32.119Z,97.25
2022-10-07T05:46:32.057Z,97.35
2022-10-07T05:47:32.048Z,96.73
2022-10-07T05:48:36.589Z,96.73
2022-10-07T05:49:34.036Z,97.45
2022-10-07T05:50:32.030Z,97.35
2022-10-07T05:51:32.017Z,97.25
2022-10-07T05:52:32.005Z,97.35
2022-10-07T05:53:31.996Z,97.25
2022-10-07T05:54:31.994Z,97.20
2022-10-07T05:55:34.688Z,97.25
2022-10-07T05:56:31.985Z,97.35
2022-10-07T05:57:31.980Z,98.18
2022-10-07T05:58:32.969Z,98.28
2022-10-07T05:59:33.929Z,98.28
2022-10-07T06:00:31.989Z,98.49
2022-10-07T06:01:31.951Z,98.18
2022-10-07T06:02:32.027Z,97.62
2022-10-07T06:03:31.926Z,97.93
2022-10-07T06:04:33.877Z,97.45
2022-10-07T06:05:31.914Z,97.72
2022-10-07T06:06:31.906Z,97.83
2022-10-07T06:07:31.891Z,97.52
2022-10-07T06:08:31.887Z,97.31
2022-10-07T06:09:31.876Z,96.69
2022-10-07T06:10:31.865Z,96.89
2022-10-07T06:11:31.855Z,95.80
2022-10-07T06:12:31.843Z,96.48
2022-10-07T06:13:31.848Z,97.20
2022-10-07T06:14:32.444Z,97.41
2022-10-07T06:15:31.904Z,97.41
2022-10-07T06:16:31.891Z,97.41
2022-10-07T06:17:31.802Z,96.17
2022-10-07T06:18:31.819Z,97.10
2022-10-07T06:19:31.793Z,97.35
2022-10-07T06:20:31.780Z,97.20
2022-10-07T06:21:31.780Z,97.31
2022-10-07T06:22:31.765Z,96.48
2022-10-07T06:23:32.381Z,96.79
2022-10-07T06:24:31.749Z,96.69
2022-10-07T06:25:31.744Z,97.20
2022-10-07T06:26:31.739Z,97.20
2022-10-07T06:27:31.741Z,97.00
2022-10-07T06:28:31.805Z,96.95
2022-10-07T06:29:32.366Z,97.41
2022-10-07T06:30:31.773Z,96.64
2022-10-07T06:31:31.699Z,96.27
2022-10-07T06:32:31.698Z,95.71
2022-10-07T06:33:31.692Z,96.02
2022-10-07T06:34:31.677Z,96.12
2022-10-07T06:35:31.666Z,96.44
2022-10-07T06:36:31.658Z,95.81
2022-10-07T06:37:31.776Z,95.03
2022-10-07T06:38:31.653Z,96.06
2022-10-07T06:39:31.644Z,95.96
2022-10-07T06:40:31.628Z,96.37
2022-10-07T06:41:31.637Z,96.58
2022-10-07T06:42:31.618Z,96.27
2022-10-07T06:43:31.607Z,96.02
2022-10-07T06:44:31.598Z,95.75
2022-10-07T06:45:31.793Z,95.34
2022-10-07T06:46:31.689Z,95.40
2022-10-07T06:47:31.573Z,95.19
2022-10-07T06:48:31.572Z,95.61
2022-10-07T06:49:31.582Z,95.40
2022-10-07T06:50:31.559Z,95.50
2022-10-07T06:51:31.558Z,95.04
2022-10-07T06:52:31.536Z,94.63
2022-10-07T06:53:31.542Z,95.67
2022-10-07T06:54:31.565Z,94.18
2022-10-07T06:55:31.517Z,93.70
2022-10-07T06:56:31.528Z,93.66
2022-10-07T06:57:45.252Z,93.97
2022-10-07T06:58:33.494Z,94.12
2022-10-07T06:59:31.565Z,94.43
2022-10-07T07:00:31.489Z,94.07
2022-10-07T07:01:32.537Z,93.76
2022-10-07T07:02:31.547Z,93.55
2022-10-07T07:03:31.454Z,93.04
2022-10-07T07:04:31.446Z,94.38
2022-10-07T07:05:32.957Z,94.07
2022-10-07T07:06:31.432Z,94.18
2022-10-07T07:07:31.428Z,94.38
2022-10-07T07:08:31.413Z,93.30
2022-10-07T07:09:31.405Z,93.45
2022-10-07T07:10:31.403Z,92.68
2022-10-07T07:11:31.409Z,92.27
2022-10-07T07:12:35.466Z,92.68
2022-10-07T07:13:31.383Z,92.58
2022-10-07T07:14:34.913Z,91.44
2022-10-07T07:15:31.364Z,92.27
2022-10-07T07:16:31.421Z,92.07
2022-10-07T07:17:33.350Z,91.86
2022-10-07T07:18:31.947Z,91.71
2022-10-07T07:19:35.459Z,90.74
2022-10-07T07:20:38.375Z,90.74
2022-10-07T07:21:31.303Z,90.22
2022-10-07T07:22:31.328Z,90.02
2022-10-07T07:23:31.327Z,89.92
2022-10-07T07:24:31.284Z,90.02
2022-10-07T07:25:31.294Z,90.12
2022-10-07T07:26:31.267Z,90.08
2022-10-07T07:27:31.267Z,89.40
2022-10-07T07:28:31.364Z,90.43
2022-10-07T07:29:31.256Z,89.71
2022-10-07T07:30:31.262Z,89.67
2022-10-07T07:31:31.879Z,89.56
2022-10-07T07:32:31.254Z,89.15
2022-10-07T07:33:31.216Z,88.59
2022-10-07T07:34:31.207Z,87.77
2022-10-07T07:35:31.199Z,87.63
2022-10-07T07:36:31.202Z,87.56
2022-10-07T07:37:31.190Z,87.66
2022-10-07T07:38:31.173Z,86.90
2022-10-07T07:39:31.167Z,86.90
2022-10-07T07:40:31.170Z,86.66
2022-10-07T07:41:31.154Z,86.76
2022-10-07T07:42:31.142Z,86.87
2022-10-07T07:43:31.144Z,86.21
2022-10-07T07:44:34.129Z,85.59
2022-10-07T07:45:32.139Z,85.03
2022-10-07T07:46:31.127Z,85.07
2022-10-07T07:47:31.114Z,86.04
2022-10-07T07:48:31.100Z,86.70
2022-10-07T07:49:31.090Z,86.49
2022-10-07T07:50:32.873Z,86.90
2022-10-07T07:51:31.066Z,87.11
2022-10-07T07:52:31.965Z,87.11
2022-10-07T07:53:31.109Z,87.01
2022-10-07T07:54:32.952Z,86.90
2022-10-07T07:55:31.032Z,86.55
2022-10-07T07:56:31.024Z,86.55
2022-10-07T07:57:31.016Z,86.76
2022-10-07T07:58:31.029Z,86.97
2022-10-07T07:59:31.009Z,85.69
2022-10-07T08:00:30.997Z,86.45
2022-10-07T08:01:31.029Z,86.24
2022-10-07T08:02:32.024Z,86.04
2022-10-07T08:03:30.994Z,85.89
2022-10-07T08:04:30.975Z,85.28
2022-10-07T08:05:33.888Z,84.83
2022-10-07T08:06:30.964Z,85.10
2022-10-07T08:07:30.952Z,84.89
2022-10-07T08:08:30.946Z,83.65
2022-10-07T08:09:30.957Z,83.65
2022-10-07T08:10:32.454Z,83.86
2022-10-07T08:11:30.913Z,84.72
2022-10-07T08:12:30.913Z,84.17
2022-10-07T08:13:30.898Z,84.58
2022-10-07T08:14:30.901Z,83.17
2022-10-07T08:15:30.912Z,82.45
2022-10-07T08:16:30.873Z,82.20
2022-10-07T08:17:32.459Z,81.24
2022-10-07T08:18:30.855Z,80.07
2022-10-07T08:19:30.868Z,79.32
2022-10-07T08:20:30.834Z,79.08
2022-10-07T08:21:31.393Z,78.12
2022-10-07T08:22:30.820Z,76.99
2022-10-07T08:23:30.817Z,76.78
2022-10-07T08:24:30.807Z,77.03
2022-10-07T08:25:31.390Z,78.12
2022-10-07T08:26:30.796Z,78.60
2022-10-07T08:27:30.800Z,78.70
2022-10-07T08:28:30.828Z,78.81
2022-10-07T08:29:30.771Z,79.05
2022-10-07T08:30:30.767Z,78.70
2022-10-07T08:31:31.124Z,78.29
2022-10-07T08:32:30.774Z,80.07
2022-10-07T08:33:30.731Z,80.63
2022-10-07T08:34:30.729Z,81.24
2022-10-07T08:35:30.726Z,81.14
2022-10-07T08:36:31.712Z,81.24
2022-10-07T08:37:30.726Z,80.49
2022-10-07T08:38:30.703Z,80.01
2022-10-07T08:39:30.691Z,80.42
2022-10-07T08:40:30.980Z,80.73
2022-10-07T08:41:32.500Z,80.32
2022-10-07T08:42:31.673Z,80.73
2022-10-07T08:43:30.652Z,80.77
2022-10-07T08:44:30.643Z,81.07
2022-10-07T08:45:30.638Z,81.18
2022-10-07T08:46:30.655Z,81.79
2022-10-07T08:47:30.634Z,82.31
2022-10-07T08:48:30.623Z,82.45
2022-10-07T08:49:30.605Z,82.96
2022-10-07T08:50:30.608Z,83.58
2022-10-07T08:51:30.587Z,83.78
2022-10-07T08:52:31.395Z,84.40
2022-10-07T08:53:30.580Z,84.09
2022-10-07T08:54:30.578Z,83.85
2022-10-07T08:55:31.508Z,83.85
2022-10-07T08:56:30.558Z,84.05
2022-10-07T08:57:32.394Z,84.71
2022-10-07T08:58:30.562Z,85.08
2022-10-07T08:59:30.535Z,84.61
2022-10-07T09:00:30.515Z,84.36
2022-10-07T09:01:30.600Z,84.42
2022-10-07T09:02:30.521Z,84.22
2022-10-07T09:03:31.472Z,84.98
2022-10-07T09:04:30.489Z,84.84
2022-10-07T09:05:30.487Z,84.77
2022-10-07T09:06:30.475Z,84.84
2022-10-07T09:07:30.476Z,84.63
2022-10-07T09:08:30.461Z,84.63
2022-10-07T09:09:30.454Z,84.32
2022-10-07T09:10:30.438Z,84.42
2022-10-07T09:11:31.444Z,83.67
2022-10-07T09:12:31.400Z,83.87
2022-10-07T09:14:36.406Z,83.53
2022-10-07T09:15:36.442Z,83.63
2022-10-07T09:16:37.499Z,83.83
2022-10-07T09:17:37.480Z,83.12
2022-10-07T09:18:37.467Z,83.07
2022-10-07T09:19:37.460Z,83.39
2022-10-07T09:20:38.130Z,82.77
2022-10-07T09:21:37.453Z,82.15
2022-10-07T09:22:37.445Z,82.46
2022-10-07T09:23:37.420Z,82.15
2022-10-07T09:24:37.513Z,81.60
2022-10-07T09:25:37.411Z,81.50
2022-10-07T09:26:37.536Z,81.09
2022-10-07T09:27:37.391Z,81.15
2022-10-07T09:28:37.466Z,80.85
2022-10-07T09:29:37.479Z,80.91
2022-10-07T09:30:38.051Z,79.58
2022-10-07T09:31:37.448Z,79.38
2022-10-07T09:32:37.358Z,79.54
2022-10-07T09:33:38.128Z,79.85
2022-10-07T09:34:37.336Z,79.75
2022-10-07T09:35:37.322Z,80.16
2022-10-07T09:36:37.323Z,79.71
2022-10-07T09:37:38.305Z,80.43
2022-10-07T09:38:37.316Z,79.50
2022-10-07T09:39:37.309Z,80.02
2022-10-07T09:40:37.296Z,79.47
2022-10-07T09:41:37.279Z,79.57
2022-10-07T09:42:37.266Z,79.88
2022-10-07T09:43:37.271Z,79.64
2022-10-07T09:44:37.270Z,79.94
2022-10-07T09:45:37.246Z,79.64
2022-10-07T09:46:37.278Z,79.84
2022-10-07T09:47:37.225Z,79.43
2022-10-07T09:48:37.232Z,79.74
2022-10-07T09:49:37.215Z,79.19
2022-10-07T09:50:37.239Z,78.78
2022-10-07T09:51:37.212Z,78.78
2022-10-07T09:52:37.205Z,78.78
2022-10-07T09:53:37.190Z,78.13
2022-10-07T09:54:37.178Z,78.34
2022-10-07T09:55:37.166Z,77.83
2022-10-07T09:56:37.165Z,78.13
2022-10-07T09:57:37.149Z,78.00
2022-10-07T09:58:37.184Z,77.18
2022-10-07T09:59:37.646Z,77.14
2022-10-07T10:00:37.144Z,76.63
2022-10-07T10:01:37.155Z,76.93
2022-10-07T10:02:37.260Z,76.63
2022-10-07T10:03:37.195Z,76.02
2022-10-07T10:04:37.098Z,76.39
2022-10-07T10:05:37.107Z,75.88
2022-10-07T10:06:37.072Z,75.88
2022-10-07T10:07:37.075Z,76.39
2022-10-07T10:08:37.091Z,76.25
2022-10-07T10:10:43.895Z,75.03
2022-10-07T10:11:43.897Z,75.20
2022-10-07T10:12:44.136Z,74.58
2022-10-07T10:13:43.875Z,73.67
2022-10-07T10:14:43.869Z,74.38
2022-10-07T10:15:43.929Z,73.47
2022-10-07T10:16:43.853Z,73.77
2022-10-07T10:17:43.845Z,74.65
2022-10-07T10:18:43.835Z,74.35
2022-10-07T10:19:43.825Z,73.64
2022-10-07T10:20:43.822Z,74.04
2022-10-07T10:21:43.836Z,73.74
2022-10-07T10:22:44.055Z,73.43
2022-10-07T10:23:43.787Z,73.02
2022-10-07T10:24:43.811Z,73.33
2022-10-07T10:25:43.786Z,73.40
2022-10-07T10:26:43.768Z,73.60
2022-10-07T10:27:43.797Z,73.10
2022-10-07T10:28:43.800Z,73.16
2022-10-07T10:29:43.742Z,72.82
2022-10-07T10:30:44.745Z,72.82
2022-10-07T10:31:43.728Z,72.21
2022-10-07T10:32:45.151Z,72.01
2022-10-07T10:33:44.811Z,71.60
2022-10-07T10:34:45.349Z,71.57
2022-10-07T10:35:44.793Z,71.47
2022-10-07T10:36:44.797Z,71.87
2022-10-07T10:37:44.782Z,71.57
2022-10-07T10:38:44.767Z,71.33
2022-10-07T10:39:44.763Z,71.26
2022-10-07T10:40:44.797Z,71.23
2022-10-07T10:41:44.737Z,70.92
2022-10-07T10:42:45.151Z,71.03
2022-10-07T10:43:44.722Z,70.99
2022-10-07T10:44:44.718Z,70.99
2022-10-07T10:45:44.706Z,70.68
2022-10-07T10:46:48.448Z,70.79
2022-10-07T10:47:46.696Z,70.76
2022-10-07T10:48:44.701Z,70.76
2022-10-07T10:49:44.682Z,70.76
2022-10-07T10:50:44.662Z,70.96
2022-10-07T10:51:44.668Z,70.65
2022-10-07T10:52:44.861Z,70.32
2022-10-07T10:53:44.653Z,71.03
2022-10-07T10:54:44.634Z,70.62
2022-10-07T10:55:44.653Z,70.62
2022-10-07T10:56:44.617Z,70.83
2022-10-07T10:57:44.644Z,70.83
2022-10-07T10:58:44.612Z,70.69
2022-10-07T10:59:44.600Z,70.69
2022-10-07T11:00:45.271Z,70.59
2022-10-07T11:01:44.617Z,70.18
2022-10-07T11:02:44.909Z,70.08
2022-10-07T11:03:44.562Z,70.28
2022-10-07T11:04:46.355Z,70.35
2022-10-07T11:05:44.648Z,69.24
2022-10-07T11:06:48.365Z,69.00
2022-10-07T11:07:44.566Z,69.20
2022-10-07T11:08:49.296Z,68.77
2022-10-07T11:09:44.516Z,68.87
2022-10-07T11:10:44.514Z,68.56
2022-10-07T11:11:44.508Z,68.66
2022-10-07T11:12:45.552Z,67.82
2022-10-07T11:13:44.515Z,67.32
2022-10-07T11:14:44.504Z,66.88
2022-10-07T11:15:45.523Z,67.08
2022-10-07T11:16:44.487Z,67.79
2022-10-07T11:17:45.496Z,67.29
2022-10-07T11:18:44.445Z,67.18
2022-10-07T11:19:44.445Z,67.39
2022-10-07T11:20:44.933Z,67.35
2022-10-07T11:21:45.634Z,67.15
2022-10-07T11:22:44.885Z,67.35
2022-10-07T11:23:44.421Z,67.15
2022-10-07T11:25:17.801Z,66.82
2022-10-07T11:25:44.391Z,66.52
2022-10-07T11:26:44.383Z,66.61
2022-10-07T11:27:44.402Z,66.41
2022-10-07T11:28:44.419Z,66.41
2022-10-07T11:29:44.364Z,66.21
2022-10-07T11:30:44.356Z,66.82
2022-10-07T11:31:44.481Z,65.88
2022-10-07T11:32:44.672Z,66.61
2022-10-07T11:33:44.325Z,66.69
2022-10-07T11:34:44.334Z,66.38
2022-10-07T11:35:44.310Z,66.38
2022-10-07T11:36:44.297Z,66.89
2022-10-07T11:37:44.284Z,65.47
2022-10-07T11:38:44.276Z,66.18
2022-10-07T11:39:44.272Z,65.88
2022-10-07T11:40:44.299Z,66.28
2022-10-07T11:41:44.253Z,66.18
2022-10-07T11:42:44.808Z,66.69
2022-10-07T11:43:44.228Z,66.48
2022-10-07T11:44:45.226Z,67.19
2022-10-07T11:45:44.246Z,66.69
2022-10-07T11:46:44.297Z,66.45
2022-10-07T11:47:44.254Z,66.96
2022-10-07T11:48:44.806Z,67.06
2022-10-07T11:49:44.255Z,66.25
2022-10-07T11:50:44.957Z,65.24
2022-10-07T11:51:44.182Z,65.14
2022-10-07T11:52:44.385Z,65.11
2022-10-07T11:53:44.149Z,63.90
2022-10-07T11:54:44.148Z,63.29
2022-10-07T11:55:44.132Z,63.36
2022-10-07T11:56:44.126Z,63.16
2022-10-07T11:57:44.127Z,62.59
2022-10-07T11:58:44.115Z,62.55
2022-10-07T11:59:44.113Z,63.16
2022-10-07T12:00:44.105Z,62.85
2022-10-07T12:01:44.148Z,63.16
2022-10-07T12:02:44.430Z,63.16
2022-10-07T12:03:44.086Z,62.93
2022-10-07T12:04:44.066Z,63.16
2022-10-07T12:05:44.056Z,63.53
2022-10-07T12:06:44.075Z,63.23
2022-10-07T12:07:44.046Z,63.33
2022-10-07T12:08:44.059Z,63.43
2022-10-07T12:09:44.031Z,63.03
2022-10-07T12:10:44.017Z,63.03
2022-10-07T12:11:44.008Z,63.13
2022-10-07T12:12:45.462Z,62.73
2022-10-07T12:13:44.011Z,63.64
2022-10-07T12:14:44.419Z,63.00
2022-10-07T12:15:43.975Z,62.73
2022-10-07T12:16:44.050Z,62.43
2022-10-07T12:17:43.969Z,62.63
2022-10-07T12:18:43.960Z,62.52
2022-10-07T12:19:43.954Z,63.13
2022-10-07T12:20:43.939Z,63.33
2022-10-07T12:21:44.818Z,63.30
2022-10-07T12:22:44.258Z,63.30
2022-10-07T12:23:43.910Z,63.10
2022-10-07T12:24:43.920Z,63.00
2022-10-07T12:25:43.909Z,63.60
2022-10-07T12:26:43.888Z,63.90
2022-10-07T12:27:43.877Z,63.30
2022-10-07T12:28:44.879Z,63.00
2022-10-07T12:29:43.863Z,62.57
2022-10-07T12:30:43.848Z,62.16
2022-10-07T12:31:43.901Z,62.46
2022-10-07T12:32:44.238Z,63.47
2022-10-07T12:33:43.847Z,62.70
2022-10-07T12:34:43.824Z,63.40
2022-10-07T12:35:43.828Z,62.77
2022-10-07T12:36:43.811Z,63.07
2022-10-07T12:37:43.798Z,62.66
2022-10-07T12:38:43.785Z,62.46
2022-10-07T12:39:43.805Z,63.17
2022-10-07T12:40:43.767Z,62.97
2022-10-07T12:41:43.758Z,63.57
2022-10-07T12:42:44.049Z,62.97
2022-10-07T12:43:43.794Z,63.27
2022-10-07T12:44:43.737Z,62.66
2022-10-07T12:45:44.750Z,62.77
2022-10-07T12:46:43.728Z,62.57
2022-10-07T12:47:43.713Z,62.77
2022-10-07T12:48:43.721Z,63.24
2022-10-07T12:49:43.695Z,62.13
2022-10-07T12:50:43.727Z,63.24
2022-10-07T12:51:43.682Z,63.04
2022-10-07T12:52:44.052Z,63.04
2022-10-07T12:53:43.679Z,62.64
2022-10-07T12:54:43.664Z,63.65
2022-10-07T12:55:43.662Z,63.85